createdAt,value
2022-11-21T00:01:27.940Z,25.07
2022-11-21T00:03:59.545Z,27.53
2022-11-21T00:06:30.786Z,25.37
2022-11-21T00:09:02.103Z,23.70
2022-11-21T00:11:33.356Z,20.20
2022-11-21T00:14:04.696Z,22.03
2022-11-21T00:16:35.985Z,26.43
2022-11-21T00:19:07.741Z,23.90
2022-11-21T00:21:39.065Z,30.30
2022-11-21T00:24:10.385Z,17.90
2022-11-21T00:26:41.632Z,19.10
2022-11-21T00:29:12.875Z,17.77
2022-11-21T00:31:44.148Z,21.90
2022-11-21T00:34:16.508Z,18.80
2022-11-21T00:36:47.742Z,18.77
2022-11-21T00:39:18.994Z,49.63
2022-11-21T00:41:50.243Z,130.37
2022-11-21T00:44:21.503Z,97.60
2022-11-21T00:46:52.749Z,286.20
2022-11-21T00:49:24.065Z,214.50
2022-11-21T00:51:55.305Z,162.27
2022-11-21T00:54:26.875Z,136.23
2022-11-21T00:56:58.347Z,262.23
2022-11-21T00:59:29.607Z,287.07
2022-11-21T01:02:00.878Z,187.73
2022-11-21T01:04:35.119Z,257.97
2022-11-21T01:07:06.468Z,136.33
2022-11-21T01:09:37.722Z,211.33
2022-11-21T01:12:09.032Z,232.37
2022-11-21T01:14:40.324Z,134.03
2022-11-21T01:17:11.576Z,67.23
2022-11-21T01:19:42.871Z,87.77
2022-11-21T01:22:14.146Z,95.80
2022-11-21T01:24:46.626Z,55.43
2022-11-21T01:27:17.890Z,34.73
2022-11-21T01:29:49.169Z,48.80
2022-11-21T01:32:20.436Z,41.10
2022-11-21T01:34:51.679Z,99.13
2022-11-21T01:37:22.941Z,40.40
2022-11-21T01:39:55.168Z,34.70
2022-11-21T01:42:26.422Z,33.80
2022-11-21T01:44:57.703Z,31.23
2022-11-21T01:47:28.954Z,28.63
2022-11-21T01:50:00.352Z,44.67
2022-11-21T01:52:32.647Z,28.63
2022-11-21T01:55:10.484Z,47.33
2022-11-21T01:57:45.098Z,57.33
2022-11-21T02:00:23.483Z,55.63
2022-11-21T02:03:04.265Z,70.77
2022-11-21T02:05:36.759Z,108.17
2022-11-21T02:08:13.746Z,48.80
2022-11-21T02:11:03.938Z,56.97
2022-11-21T02:13:35.219Z,41.17
2022-11-21T02:16:07.921Z,53.87
2022-11-21T02:18:39.319Z,103.10
2022-11-21T02:21:25.206Z,114.03
2022-11-21T02:24:17.112Z,162.37
2022-11-21T02:26:48.779Z,98.90
2022-11-21T02:29:20.082Z,86.53
2022-11-21T02:31:52.468Z,145.07
2022-11-21T02:34:23.724Z,144.10
2022-11-21T02:36:55.308Z,191.30
2022-11-21T02:39:32.215Z,217.07
2022-11-21T02:42:21.209Z,189.30
2022-11-21T02:45:12.078Z,218.43
2022-11-21T02:47:45.126Z,254.53
2022-11-21T02:50:22.311Z,152.60
2022-11-21T02:52:55.363Z,222.43
2022-11-21T02:55:27.067Z,273.13
2022-11-21T02:58:03.247Z,193.30
2022-11-21T03:00:37.610Z,167.73
2022-11-21T03:03:08.995Z,218.87
2022-11-21T03:05:40.887Z,219.50
2022-11-21T03:08:12.195Z,138.47
2022-11-21T03:10:43.439Z,128.60
2022-11-21T03:13:14.692Z,118.80
2022-11-21T03:15:45.976Z,125.17
2022-11-21T03:18:17.247Z,156.23
2022-11-21T03:20:48.557Z,77.10
2022-11-21T03:23:19.834Z,78.23
2022-11-21T03:25:51.093Z,84.57
2022-11-21T03:28:22.348Z,166.37
2022-11-21T03:30:53.650Z,140.00
2022-11-21T03:33:24.997Z,85.97
2022-11-21T03:35:56.318Z,50.03
2022-11-21T03:38:27.594Z,60.57
2022-11-21T03:41:04.345Z,118.33
2022-11-21T03:43:35.601Z,110.17
2022-11-21T03:46:06.913Z,55.77
2022-11-21T03:48:39.307Z,78.30
2022-11-21T03:51:10.568Z,119.90
2022-11-21T03:53:41.988Z,60.70
2022-11-21T03:56:13.336Z,63.90
2022-11-21T03:58:45.154Z,54.63
2022-11-21T04:01:16.627Z,61.77
2022-11-21T04:03:48.037Z,79.70
2022-11-21T04:06:22.371Z,34.00
2022-11-21T04:08:53.704Z,39.20
2022-11-21T04:11:25.135Z,98.93
2022-11-21T04:13:56.413Z,73.77
2022-11-21T04:16:27.673Z,48.40
2022-11-21T04:18:58.937Z,55.33
2022-11-21T04:21:30.235Z,44.33
2022-11-21T04:24:01.480Z,19.90
2022-11-21T04:26:32.727Z,31.37
2022-11-21T04:29:03.968Z,49.93
2022-11-21T04:31:35.219Z,44.97
2022-11-21T04:34:06.499Z,92.63
2022-11-21T04:36:37.972Z,57.47
2022-11-21T04:39:09.320Z,44.50
2022-11-21T04:41:40.636Z,117.47
2022-11-21T04:44:11.869Z,51.43
2022-11-21T04:46:43.214Z,74.50
2022-11-21T04:49:14.735Z,67.03
2022-11-21T04:51:46.097Z,49.20
2022-11-21T04:54:17.327Z,40.37
2022-11-21T04:56:48.680Z,64.20
2022-11-21T04:59:19.978Z,40.07
2022-11-21T05:01:51.298Z,48.30
2022-11-21T05:04:22.560Z,36.07
2022-11-21T05:06:53.803Z,30.50
2022-11-21T05:09:25.160Z,27.60
2022-11-21T05:12:15.041Z,31.47
2022-11-21T05:14:46.400Z,33.40
2022-11-21T05:17:17.707Z,74.70
2022-11-21T05:19:48.991Z,54.43
2022-11-21T05:22:20.315Z,51.90
2022-11-21T05:24:51.699Z,37.57
2022-11-21T05:27:23.055Z,36.67
2022-11-21T05:29:55.308Z,24.33
2022-11-21T05:32:26.719Z,165.90
2022-11-21T05:34:58.016Z,67.70
2022-11-21T05:37:29.432Z,33.90
2022-11-21T05:40:01.076Z,40.70
2022-11-21T05:42:50.812Z,47.07
2022-11-21T05:45:22.081Z,54.83
2022-11-21T05:47:53.393Z,41.63
2022-11-21T05:50:24.720Z,69.67
2022-11-21T05:52:56.050Z,69.40
2022-11-21T05:55:27.408Z,31.50
2022-11-21T05:57:59.904Z,33.33
2022-11-21T06:00:31.364Z,108.97
2022-11-21T06:03:21.132Z,35.97
2022-11-21T06:06:05.009Z,32.73
2022-11-21T06:08:41.651Z,35.30
2022-11-21T06:11:15.381Z,59.67
2022-11-21T06:13:46.695Z,36.73
2022-11-21T06:16:20.035Z,105.13
2022-11-21T06:18:56.814Z,110.43
2022-11-21T06:21:29.980Z,116.80
2022-11-21T06:24:01.289Z,42.70
2022-11-21T06:26:32.722Z,40.93
2022-11-21T06:29:04.097Z,25.73
2022-11-21T06:31:35.463Z,28.37
2022-11-21T06:34:06.712Z,44.47
2022-11-21T06:36:38.044Z,53.23
2022-11-21T06:39:09.413Z,84.07
2022-11-21T06:41:40.760Z,87.30
2022-11-21T06:44:12.588Z,41.97
2022-11-21T06:46:49.671Z,49.30
2022-11-21T06:49:22.469Z,28.87
2022-11-21T06:51:53.829Z,34.30
2022-11-21T06:54:25.152Z,29.00
2022-11-21T06:56:58.812Z,26.00
2022-11-21T06:59:30.105Z,24.07
2022-11-21T07:02:01.512Z,26.47
2022-11-21T07:04:32.805Z,23.07
2022-11-21T07:07:04.328Z,26.80
2022-11-21T07:09:36.607Z,46.07
2022-11-21T07:12:27.106Z,48.40
2022-11-21T07:14:58.375Z,26.87
2022-11-21T07:17:29.736Z,28.67
2022-11-21T07:20:01.092Z,47.03
2022-11-21T07:22:32.491Z,34.93
2022-11-21T07:25:04.103Z,33.43
2022-11-21T07:27:35.557Z,29.03
2022-11-21T07:30:07.751Z,33.70
2022-11-21T07:32:39.088Z,23.77
2022-11-21T07:35:10.491Z,39.63
2022-11-21T07:37:41.885Z,26.10
2022-11-21T07:40:13.661Z,25.27
2022-11-21T07:42:45.041Z,23.37
2022-11-21T07:45:16.622Z,48.10
2022-11-21T07:47:47.977Z,37.67
2022-11-21T07:50:19.428Z,23.20
2022-11-21T07:52:50.780Z,27.00
2022-11-21T07:55:22.115Z,23.53
2022-11-21T07:58:05.299Z,36.47
2022-11-21T08:00:38.973Z,27.07
2022-11-21T08:03:12.277Z,23.90
2022-11-21T08:05:44.627Z,22.40
2022-11-21T08:08:15.981Z,21.70
2022-11-21T08:10:47.355Z,29.77
2022-11-21T08:13:18.676Z,22.63
2022-11-21T08:15:50.040Z,25.40
2022-11-21T08:18:21.413Z,26.30
2022-11-21T08:20:52.700Z,19.37
2022-11-21T08:23:24.033Z,30.97
2022-11-21T08:25:55.385Z,30.73
2022-11-21T08:28:26.659Z,25.07
2022-11-21T08:30:58.027Z,23.47
2022-11-21T08:33:29.354Z,22.17
2022-11-21T08:36:07.155Z,24.07
2022-11-21T08:38:38.476Z,19.80
2022-11-21T08:41:30.871Z,22.87
2022-11-21T08:44:02.369Z,42.37
2022-11-21T08:46:37.088Z,20.03
2022-11-21T08:49:08.620Z,24.30
2022-11-21T08:51:40.088Z,21.90
2022-11-21T08:54:11.384Z,28.50
2022-11-21T08:56:42.764Z,29.47
2022-11-21T08:59:15.377Z,25.83
2022-11-21T09:01:46.873Z,20.20
2022-11-21T09:04:18.468Z,25.40
2022-11-21T09:06:49.709Z,27.90
2022-11-21T09:09:25.275Z,25.73
2022-11-21T09:11:57.132Z,29.50
2022-11-21T09:14:47.537Z,34.37
2022-11-21T09:17:37.660Z,23.97
2022-11-21T09:20:09.666Z,27.10
2022-11-21T09:22:41.136Z,23.73
2022-11-21T09:25:12.501Z,24.63
2022-11-21T09:27:43.875Z,25.47
2022-11-21T09:30:15.895Z,29.53
2022-11-21T09:32:47.204Z,21.67
2022-11-21T09:35:18.774Z,28.00
2022-11-21T09:37:51.695Z,23.50
2022-11-21T09:40:23.414Z,26.70
2022-11-21T09:43:35.824Z,29.37
2022-11-21T09:46:17.155Z,28.47
2022-11-21T09:48:55.065Z,27.53
2022-11-21T09:51:30.698Z,26.50
2022-11-21T09:54:07.323Z,26.67
2022-11-21T09:56:42.162Z,29.60
2022-11-21T09:59:32.576Z,26.90
2022-11-21T10:02:14.712Z,25.97
2022-11-21T10:04:47.379Z,30.00
2022-11-21T10:07:26.996Z,30.13
2022-11-21T10:10:08.677Z,28.07
2022-11-21T10:13:00.203Z,26.60
2022-11-21T10:15:54.868Z,30.67
2022-11-21T10:18:44.627Z,25.40
2022-11-21T10:21:15.839Z,26.50
2022-11-21T10:24:08.441Z,32.93
2022-11-21T10:26:52.581Z,27.03
2022-11-21T10:29:23.941Z,24.73
2022-11-21T10:32:01.193Z,26.63
2022-11-21T10:34:37.653Z,26.13
2022-11-21T10:40:15.964Z,27.50
2022-11-21T10:43:29.129Z,22.37
2022-11-21T10:46:00.464Z,26.03
2022-11-21T10:48:31.832Z,22.30
2022-11-21T10:51:12.575Z,29.43
2022-11-21T10:54:07.575Z,24.47
2022-11-21T10:56:39.467Z,24.17
2022-11-21T10:59:30.096Z,25.10
2022-11-21T11:02:22.786Z,26.23
2022-11-21T11:05:15.743Z,27.60
2022-11-21T11:08:07.971Z,24.47
2022-11-21T11:10:40.607Z,22.50
2022-11-21T11:13:46.518Z,23.30
2022-11-21T11:16:21.380Z,27.33
2022-11-21T11:18:58.873Z,24.77
2022-11-21T11:21:44.046Z,22.77
2022-11-21T11:24:15.332Z,24.63
2022-11-21T11:26:46.569Z,26.43
2022-11-21T11:29:27.426Z,25.57
2022-11-21T11:31:58.992Z,22.17
2022-11-21T11:34:39.225Z,22.80
2022-11-21T11:37:40.341Z,25.00
2022-11-21T11:40:19.096Z,25.87
2022-11-21T11:43:23.628Z,24.10
2022-11-21T11:46:35.884Z,28.30
2022-11-21T11:49:52.957Z,21.93
2022-11-21T11:52:28.211Z,23.73
2022-11-21T11:55:08.313Z,25.63
2022-11-21T11:57:41.649Z,27.50
2022-11-21T12:00:45.517Z,27.43
2022-11-21T12:03:19.858Z,23.30
2022-11-21T12:06:12.486Z,21.43
2022-11-21T12:08:52.419Z,23.77
2022-11-21T12:11:48.970Z,17.53
2022-11-21T12:14:47.081Z,19.45
2022-11-21T12:17:25.317Z,22.40
2022-11-21T12:19:58.810Z,18.57
2022-11-21T12:22:30.169Z,19.07
2022-11-21T12:25:01.545Z,17.93
2022-11-21T12:27:34.140Z,16.40
2022-11-21T12:30:42.995Z,17.00
2022-11-21T12:33:21.730Z,18.77
2022-11-21T12:36:18.576Z,15.83
2022-11-21T12:39:03.267Z,15.80
2022-11-21T12:42:07.157Z,20.13
2022-11-21T12:45:03.440Z,17.67
2022-11-21T12:48:18.578Z,13.13
2022-11-21T12:51:31.861Z,14.17
2022-11-21T12:54:31.285Z,14.80
2022-11-21T12:57:05.691Z,12.27
2022-11-21T12:59:58.822Z,14.60
2022-11-21T13:02:48.624Z,18.80
2022-11-21T13:05:45.447Z,14.67
2022-11-21T13:08:24.691Z,15.32
2022-11-21T13:11:27.850Z,15.73
2022-11-21T13:14:04.365Z,12.47
2022-11-21T13:16:39.480Z,12.73
2022-11-21T13:19:31.879Z,13.03
2022-11-21T13:22:03.346Z,10.87
2022-11-21T13:24:47.616Z,10.87
2022-11-21T13:27:30.052Z,10.70
2022-11-21T13:30:07.599Z,10.70
2022-11-21T13:32:43.243Z,9.43
2022-11-21T13:35:14.975Z,11.10
2022-11-21T13:37:50.470Z,9.60
2022-11-21T13:40:30.533Z,11.53
2022-11-21T13:43:34.147Z,11.50
2022-11-21T13:46:05.958Z,7.63
2022-11-21T13:49:00.704Z,9.37
2022-11-21T13:51:52.616Z,7.60
2022-11-21T13:54:26.817Z,7.00
2022-11-21T13:57:40.297Z,8.67
2022-11-21T14:00:26.648Z,8.63
2022-11-21T14:03:16.620Z,9.25
2022-11-21T14:06:02.652Z,7.87
2022-11-21T14:08:34.235Z,6.45
2022-11-21T14:11:30.062Z,8.77
2022-11-21T14:14:01.867Z,8.17
2022-11-21T14:16:38.073Z,10.67
2022-11-21T14:19:14.830Z,7.97
2022-11-21T14:21:47.431Z,7.10
2022-11-21T14:24:19.665Z,8.60
2022-11-21T14:26:53.872Z,10.33
2022-11-21T14:29:37.583Z,7.93
2022-11-21T14:32:25.948Z,6.50
2022-11-21T14:35:10.803Z,8.70
2022-11-21T14:37:42.192Z,10.07
2022-11-21T14:40:21.244Z,10.40
2022-11-21T14:42:52.643Z,10.73
2022-11-21T14:45:24.246Z,10.27
2022-11-21T14:47:55.530Z,10.70
2022-11-21T14:50:29.731Z,9.13
2022-11-21T14:53:01.824Z,10.90
2022-11-21T14:55:33.390Z,8.80
2022-11-21T14:58:05.968Z,9.20
2022-11-21T15:00:58.470Z,11.07
2022-11-21T15:03:28.752Z,13.33
2022-11-21T15:06:06.467Z,11.57
2022-11-21T15:11:41.032Z,11.07
2022-11-21T15:14:27.993Z,9.93
2022-11-21T15:19:32.766Z,8.90
2022-11-21T15:22:04.654Z,9.57
2022-11-21T15:24:42.137Z,7.00
2022-11-21T15:27:28.509Z,7.90
2022-11-21T15:30:21.240Z,8.85
2022-11-21T15:33:13.440Z,9.20
2022-11-21T15:35:49.218Z,8.77
2022-11-21T15:38:41.660Z,7.18
2022-11-21T15:41:14.406Z,10.60
2022-11-21T15:43:48.148Z,11.17
2022-11-21T15:46:33.928Z,12.83
2022-11-21T15:49:31.428Z,10.27
2022-11-21T15:52:13.332Z,10.97
2022-11-21T15:54:44.812Z,9.65
2022-11-21T15:59:54.488Z,14.13
2022-11-21T16:02:25.820Z,11.20
2022-11-21T16:04:57.092Z,11.47
2022-11-21T16:07:28.446Z,11.20
2022-11-21T16:09:59.876Z,10.87
2022-11-21T16:12:31.256Z,10.00
2022-11-21T16:15:02.543Z,14.53
2022-11-21T16:17:33.911Z,11.93
2022-11-21T16:20:05.825Z,13.30
2022-11-21T16:22:38.030Z,16.03
2022-11-21T16:25:11.764Z,19.37
2022-11-21T16:27:43.198Z,19.67
2022-11-21T16:30:14.883Z,15.40
2022-11-21T16:32:47.124Z,14.93
2022-11-21T16:35:18.524Z,19.90
2022-11-21T16:37:52.035Z,16.43
2022-11-21T16:40:23.316Z,20.13
2022-11-21T16:43:07.944Z,21.53
2022-11-21T16:45:39.720Z,20.53
2022-11-21T16:48:11.009Z,18.47
2022-11-21T16:50:42.470Z,20.13
2022-11-21T16:53:14.832Z,17.03
2022-11-21T16:55:46.096Z,20.47
2022-11-21T16:58:17.448Z,21.77
2022-11-21T17:00:48.826Z,21.90
2022-11-21T17:03:23.484Z,24.63
2022-11-21T17:05:58.689Z,21.70
2022-11-21T17:08:29.987Z,24.70
2022-11-21T17:11:12.592Z,25.60
2022-11-21T17:13:45.516Z,22.67
2022-11-21T17:16:19.523Z,20.40
2022-11-21T17:18:55.262Z,22.70
2022-11-21T17:21:28.219Z,23.75
2022-11-21T17:23:59.605Z,19.97
2022-11-21T17:26:30.925Z,26.30
2022-11-21T17:29:05.187Z,26.27
2022-11-21T17:31:36.487Z,25.83
2022-11-21T17:34:08.148Z,24.43
2022-11-21T17:36:39.412Z,26.20
2022-11-21T17:39:12.617Z,29.87
2022-11-21T17:41:44.492Z,24.87
2022-11-21T17:44:16.195Z,26.87
2022-11-21T17:46:47.666Z,23.93
2022-11-21T17:49:19.009Z,29.10
2022-11-21T17:51:55.206Z,26.47
2022-11-21T17:54:28.223Z,22.17
2022-11-21T17:57:00.008Z,24.03
2022-11-21T17:59:31.757Z,26.97
2022-11-21T18:02:03.309Z,32.33
2022-11-21T18:04:38.742Z,23.13
2022-11-21T18:07:10.301Z,27.30
2022-11-21T18:09:41.663Z,29.13
2022-11-21T18:12:13.078Z,31.23
2022-11-21T18:14:44.342Z,29.67
2022-11-21T18:17:15.624Z,24.53
2022-11-21T18:19:46.897Z,27.40
2022-11-21T18:22:18.210Z,25.63
2022-11-21T18:24:49.656Z,26.00
2022-11-21T18:27:21.068Z,26.17
2022-11-21T18:29:52.552Z,28.20
2022-11-21T18:32:23.997Z,24.20
2022-11-21T18:34:55.287Z,25.93
2022-11-21T18:37:26.698Z,22.93
2022-11-21T18:39:58.057Z,27.90
2022-11-21T18:42:31.729Z,23.50
2022-11-21T18:45:03.708Z,27.97
2022-11-21T18:47:35.103Z,27.60
2022-11-21T18:50:06.864Z,21.90
2022-11-21T18:52:42.220Z,24.77
2022-11-21T18:55:17.690Z,24.00
2022-11-21T18:57:48.985Z,25.57
2022-11-21T19:00:20.449Z,28.83
2022-11-21T19:02:51.769Z,27.07
2022-11-21T19:05:23.035Z,27.00
2022-11-21T19:07:54.352Z,25.17
2022-11-21T19:10:42.532Z,25.63
2022-11-21T19:13:15.306Z,25.53
2022-11-21T19:15:46.652Z,28.60
2022-11-21T19:18:17.961Z,28.07
2022-11-21T19:20:49.352Z,30.87
2022-11-21T19:23:20.877Z,28.97
2022-11-21T19:25:52.943Z,32.60
2022-11-21T19:28:24.288Z,29.93
2022-11-21T19:30:57.056Z,30.80
2022-11-21T19:33:30.267Z,29.37
2022-11-21T19:36:06.454Z,30.07
2022-11-21T19:38:37.923Z,32.38
2022-11-21T19:41:13.636Z,32.30
2022-11-21T19:43:49.265Z,31.55
2022-11-21T19:46:31.125Z,31.43
2022-11-21T19:49:03.667Z,31.53
2022-11-21T19:51:37.965Z,23.83
2022-11-21T19:54:12.225Z,30.30
2022-11-21T19:56:43.576Z,34.20
2022-11-21T19:59:15.000Z,33.30
2022-11-21T20:01:51.140Z,32.73
2022-11-21T20:04:23.865Z,29.47
2022-11-21T20:06:57.270Z,31.47
2022-11-21T20:09:33.374Z,31.43
2022-11-21T20:12:06.385Z,27.63
2022-11-21T20:14:37.671Z,27.70
2022-11-21T20:17:09.000Z,30.03
2022-11-21T20:19:40.337Z,27.80
2022-11-21T20:22:11.706Z,32.37
2022-11-21T20:24:47.429Z,28.30
2022-11-21T20:27:21.708Z,32.23
2022-11-21T20:29:52.970Z,33.03
2022-11-21T20:32:28.138Z,31.10
2022-11-21T20:34:59.400Z,30.50
2022-11-21T20:37:30.656Z,32.60
2022-11-21T20:40:01.993Z,29.47
2022-11-21T20:42:34.394Z,29.80
2022-11-21T20:47:57.619Z,32.20
2022-11-21T20:51:10.978Z,27.03
2022-11-21T20:53:51.999Z,26.33
2022-11-21T20:56:14.352Z,30.13
2022-11-21T20:58:46.488Z,28.50
2022-11-21T21:01:20.688Z,25.43
2022-11-21T21:03:52.191Z,28.23
2022-11-21T21:06:24.158Z,27.23
2022-11-21T21:08:55.612Z,29.87
2022-11-21T21:14:18.375Z,25.97
2022-11-21T21:16:50.111Z,25.17
2022-11-21T21:19:21.780Z,29.93
2022-11-21T21:21:53.176Z,28.20
2022-11-21T21:24:24.649Z,25.07
2022-11-21T21:26:55.913Z,31.07
2022-11-21T21:29:27.529Z,24.67
2022-11-21T21:31:58.853Z,27.20
2022-11-21T21:34:30.482Z,26.13
2022-11-21T21:37:01.881Z,28.00
2022-11-21T21:39:33.197Z,25.40
2022-11-21T21:42:04.533Z,28.03
2022-11-21T21:44:36.217Z,26.17
2022-11-21T21:47:11.044Z,25.27
2022-11-21T21:49:42.424Z,29.03
2022-11-21T21:52:14.185Z,24.17
2022-11-21T21:54:45.611Z,27.83
2022-11-21T21:57:16.968Z,26.77
2022-11-21T21:59:48.235Z,27.43
2022-11-21T22:02:19.716Z,26.00
2022-11-21T22:04:52.166Z,27.43
2022-11-21T22:07:23.903Z,24.03
2022-11-21T22:09:55.433Z,28.50
2022-11-21T22:12:26.914Z,27.93
2022-11-21T22:14:58.227Z,30.17
2022-11-21T22:17:29.476Z,28.70
2022-11-21T22:20:00.824Z,26.00
2022-11-21T22:22:32.108Z,25.43
2022-11-21T22:25:03.574Z,27.43
2022-11-21T22:27:34.831Z,30.93
2022-11-21T22:30:06.551Z,31.27
2022-11-21T22:32:37.889Z,24.33
2022-11-21T22:35:09.203Z,23.57
2022-11-21T22:37:40.462Z,29.90
2022-11-21T22:40:12.519Z,31.27
2022-11-21T22:42:43.818Z,31.33
2022-11-21T22:45:15.080Z,27.73
2022-11-21T22:47:48.173Z,29.10
2022-11-21T22:50:20.128Z,26.43
2022-11-21T22:53:01.017Z,26.83
2022-11-21T22:55:33.121Z,26.30
2022-11-21T22:58:05.007Z,24.20
2022-11-21T23:00:37.173Z,31.00
2022-11-21T23:03:09.056Z,33.53
2022-11-21T23:05:40.757Z,28.57
2022-11-21T23:08:12.745Z,32.27
2022-11-21T23:10:44.029Z,25.20
2022-11-21T23:13:15.273Z,33.10
2022-11-21T23:15:46.591Z,21.47
2022-11-21T23:18:17.852Z,33.20
2022-11-21T23:20:49.173Z,32.63
2022-11-21T23:23:20.554Z,26.43
2022-11-21T23:25:52.356Z,33.03
2022-11-21T23:28:23.768Z,27.30
2022-11-21T23:30:55.202Z,30.97
2022-11-21T23:33:26.447Z,28.83
2022-11-21T23:35:57.737Z,30.97
2022-11-21T23:38:28.995Z,34.53
2022-11-21T23:41:00.277Z,33.53
2022-11-21T23:43:31.651Z,31.07
2022-11-21T23:46:02.928Z,36.23
2022-11-21T23:48:34.204Z,43.30
2022-11-21T23:51:05.533Z,40.33
2022-11-21T23:53:37.179Z,38.70
2022-11-21T23:56:08.821Z,33.67
2022-11-21T23:58:43.565Z,34.07
